KCGZ/CGZ METAR and TAF weather

Enter ICAO airport designator
Station Type Date Time Source
KCGZ METAR 2019/11/18 08:56 UTC NOAA

KCGZ 180856Z AUTO 14004KT 10SM CLR 11/M04 A2999 RMK AO2 SLP148 T01111039 56004


Station Type Date Time Source
KCGZ Decoded METAR 2019/11/18 08:56 UTC NOAA

Casa Grande, Casa Grande Municipal Airport, AZ, United States (KCGZ) 32-57N 111-46W
Nov 18, 2019 - 03:56 AM EST / 2019.11.18 0856 UTC
Wind: from the SE (140 degrees) at 5 MPH (4 KT):0
Visibility: 10 mile(s):0
Sky conditions: clear
Temperature: 52.0 F (11.1 C)
Dew Point: 25.0 F (-3.9 C)
Relative Humidity: 34%
Pressure (altimeter): 29.99 in. Hg (1015 hPa)
Pressure tendency: 0.01 inches (0.4 hPa) lower than three hours ago
ob: KCGZ 180856Z AUTO 14004KT 10SM CLR 11/M04 A2999 RMK AO2 SLP148 T01111039 56004
cycle: 9

Station Type Date Time Source
KCGZ TAF UTC NOAA

Error!

Example: see airport list